sensor_id;sensor_type;location;lat;lon;timestamp;P1;durP1;ratioP1;P2;durP2;ratioP2
46439;SDS011;32138;50.966;6.968;2023-05-08T00:00:38;7.03;;;6.07;;
46439;SDS011;32138;50.966;6.968;2023-05-08T00:01:38;6.85;;;6.15;;
46439;SDS011;32138;50.966;6.968;2023-05-08T00:02:39;9.40;;;6.82;;
46439;SDS011;32138;50.966;6.968;2023-05-08T00:03:41;8.60;;;6.35;;
46439;SDS011;32138;50.966;6.968;2023-05-08T00:04:42;7.78;;;6.95;;
46439;SDS011;32138;50.966;6.968;2023-05-08T00:05:42;7.55;;;6.30;;
46439;SDS011;32138;50.966;6.968;2023-05-08T00:06:43;8.45;;;6.70;;
46439;SDS011;32138;50.966;6.968;2023-05-08T00:07:44;7.55;;;6.75;;
46439;SDS011;32138;50.966;6.968;2023-05-08T00:08:44;7.63;;;6.85;;
46439;SDS011;32138;50.966;6.968;2023-05-08T00:09:45;7.28;;;6.40;;
46439;SDS011;32138;50.966;6.968;2023-05-08T00:10:46;8.25;;;7.30;;
46439;SDS011;32138;50.966;6.968;2023-05-08T00:11:47;10.32;;;6.53;;
46439;SDS011;32138;50.966;6.968;2023-05-08T00:12:48;9.80;;;6.00;;
46439;SDS011;32138;50.966;6.968;2023-05-08T00:13:48;7.65;;;6.90;;
46439;SDS011;32138;50.966;6.968;2023-05-08T00:14:49;7.93;;;6.55;;
46439;SDS011;32138;50.966;6.968;2023-05-08T00:15:50;9.73;;;6.93;;
46439;SDS011;32138;50.966;6.968;2023-05-08T00:16:51;7.93;;;6.13;;
46439;SDS011;32138;50.966;6.968;2023-05-08T00:17:51;6.93;;;5.80;;
46439;SDS011;32138;50.966;6.968;2023-05-08T00:18:52;9.88;;;7.47;;
46439;SDS011;32138;50.966;6.968;2023-05-08T00:19:53;8.13;;;6.07;;
46439;SDS011;32138;50.966;6.968;2023-05-08T00:20:54;9.25;;;7.50;;
46439;SDS011;32138;50.966;6.968;2023-05-08T00:21:55;6.70;;;6.10;;
46439;SDS011;32138;50.966;6.968;2023-05-08T00:22:56;8.13;;;7.03;;
46439;SDS011;32138;50.966;6.968;2023-05-08T00:23:57;7.85;;;7.05;;
46439;SDS011;32138;50.966;6.968;2023-05-08T00:24:57;7.35;;;6.65;;
46439;SDS011;32138;50.966;6.968;2023-05-08T00:25:58;9.10;;;6.72;;
46439;SDS011;32138;50.966;6.968;2023-05-08T00:26:59;11.55;;;7.28;;
46439;SDS011;32138;50.966;6.968;2023-05-08T00:28:00;8.63;;;6.38;;
46439;SDS011;32138;50.966;6.968;2023-05-08T00:29:00;7.90;;;6.93;;
46439;SDS011;32138;50.966;6.968;2023-05-08T00:30:01;8.23;;;6.95;;
46439;SDS011;32138;50.966;6.968;2023-05-08T00:31:02;7.10;;;6.40;;
46439;SDS011;32138;50.966;6.968;2023-05-08T00:32:03;7.55;;;6.85;;
46439;SDS011;32138;50.966;6.968;2023-05-08T00:33:04;9.23;;;7.90;;
46439;SDS011;32138;50.966;6.968;2023-05-08T00:34:05;9.07;;;7.28;;
46439;SDS011;32138;50.966;6.968;2023-05-08T00:35:05;9.27;;;8.23;;
46439;SDS011;32138;50.966;6.968;2023-05-08T00:36:07;9.18;;;7.25;;
46439;SDS011;32138;50.966;6.968;2023-05-08T00:37:08;8.35;;;7.40;;
46439;SDS011;32138;50.966;6.968;2023-05-08T00:38:08;8.75;;;7.85;;
46439;SDS011;32138;50.966;6.968;2023-05-08T00:39:10;11.90;;;7.38;;
46439;SDS011;32138;50.966;6.968;2023-05-08T00:40:11;7.80;;;7.10;;
46439;SDS011;32138;50.966;6.968;2023-05-08T00:41:12;7.75;;;7.05;;
46439;SDS011;32138;50.966;6.968;2023-05-08T00:42:13;11.77;;;8.30;;
46439;SDS011;32138;50.966;6.968;2023-05-08T00:43:13;7.35;;;6.57;;
46439;SDS011;32138;50.966;6.968;2023-05-08T00:44:14;8.48;;;7.68;;
46439;SDS011;32138;50.966;6.968;2023-05-08T00:45:15;9.48;;;8.45;;
46439;SDS011;32138;50.966;6.968;2023-05-08T00:46:16;10.10;;;8.48;;
46439;SDS011;32138;50.966;6.968;2023-05-08T00:47:17;8.60;;;6.97;;
46439;SDS011;32138;50.966;6.968;2023-05-08T00:48:20;8.95;;;7.28;;
46439;SDS011;32138;50.966;6.968;2023-05-08T00:49:25;9.52;;;7.32;;
46439;SDS011;32138;50.966;6.968;2023-05-08T00:50:26;10.30;;;7.60;;
46439;SDS011;32138;50.966;6.968;2023-05-08T00:51:26;8.57;;;7.75;;
46439;SDS011;32138;50.966;6.968;2023-05-08T00:52:28;8.25;;;7.30;;
46439;SDS011;32138;50.966;6.968;2023-05-08T00:53:32;8.05;;;7.22;;
46439;SDS011;32138;50.966;6.968;2023-05-08T00:54:37;7.45;;;6.75;;
46439;SDS011;32138;50.966;6.968;2023-05-08T00:55:38;9.10;;;7.95;;
46439;SDS011;32138;50.966;6.968;2023-05-08T00:56:39;7.30;;;6.60;;
46439;SDS011;32138;50.966;6.968;2023-05-08T00:57:40;8.48;;;7.70;;
46439;SDS011;32138;50.966;6.968;2023-05-08T00:58:42;8.60;;;7.68;;
46439;SDS011;32138;50.966;6.968;2023-05-08T00:59:43;8.25;;;7.18;;
46439;SDS011;32138;50.966;6.968;2023-05-08T01:00:46;8.50;;;7.10;;
46439;SDS011;32138;50.966;6.968;2023-05-08T01:01:47;8.00;;;7.20;;
46439;SDS011;32138;50.966;6.968;2023-05-08T01:02:48;8.27;;;7.47;;
46439;SDS011;32138;50.966;6.968;2023-05-08T01:03:49;9.10;;;6.57;;
46439;SDS011;32138;50.966;6.968;2023-05-08T01:04:51;8.63;;;7.55;;
46439;SDS011;32138;50.966;6.968;2023-05-08T01:05:53;8.48;;;7.68;;
46439;SDS011;32138;50.966;6.968;2023-05-08T01:06:54;10.52;;;7.13;;
46439;SDS011;32138;50.966;6.968;2023-05-08T01:07:55;7.90;;;7.20;;
46439;SDS011;32138;50.966;6.968;2023-05-08T01:08:56;9.00;;;7.55;;
46439;SDS011;32138;50.966;6.968;2023-05-08T01:09:57;9.18;;;7.43;;
46439;SDS011;32138;50.966;6.968;2023-05-08T01:12:34;11.52;;;7.47;;
46439;SDS011;32138;50.966;6.968;2023-05-08T01:15:11;7.55;;;6.85;;
46439;SDS011;32138;50.966;6.968;2023-05-08T01:16:31;9.88;;;7.80;;
46439;SDS011;32138;50.966;6.968;2023-05-08T01:21:11;6.95;;;5.50;;
46439;SDS011;32138;50.966;6.968;2023-05-08T01:23:52;7.45;;;6.60;;
46439;SDS011;32138;50.966;6.968;2023-05-08T01:27:32;7.90;;;7.10;;
46439;SDS011;32138;50.966;6.968;2023-05-08T01:32:17;68.70;;;62.22;;
46439;SDS011;32138;50.966;6.968;2023-05-08T01:34:38;9.13;;;7.57;;
46439;SDS011;32138;50.966;6.968;2023-05-08T01:35:50;7.82;;;6.30;;
46439;SDS011;32138;50.966;6.968;2023-05-08T01:37:28;7.47;;;6.78;;
46439;SDS011;32138;50.966;6.968;2023-05-08T01:41:13;7.35;;;6.55;;
46439;SDS011;32138;50.966;6.968;2023-05-08T01:42:27;7.93;;;6.35;;
46439;SDS011;32138;50.966;6.968;2023-05-08T01:43:52;6.10;;;5.50;;
46439;SDS011;32138;50.966;6.968;2023-05-08T01:45:18;7.03;;;6.25;;
46439;SDS011;32138;50.966;6.968;2023-05-08T01:46:26;7.25;;;6.10;;
46439;SDS011;32138;50.966;6.968;2023-05-08T01:47:31;6.95;;;5.72;;
46439;SDS011;32138;50.966;6.968;2023-05-08T01:48:38;7.63;;;4.70;;
46439;SDS011;32138;50.966;6.968;2023-05-08T01:49:55;7.20;;;5.90;;
46439;SDS011;32138;50.966;6.968;2023-05-08T01:51:18;6.88;;;6.00;;
46439;SDS011;32138;50.966;6.968;2023-05-08T01:52:27;8.50;;;6.50;;
46439;SDS011;32138;50.966;6.968;2023-05-08T01:53:41;6.57;;;5.85;;
46439;SDS011;32138;50.966;6.968;2023-05-08T01:56:11;9.65;;;6.70;;
46439;SDS011;32138;50.966;6.968;2023-05-08T01:57:16;7.55;;;6.72;;
46439;SDS011;32138;50.966;6.968;2023-05-08T01:58:17;7.40;;;6.35;;
46439;SDS011;32138;50.966;6.968;2023-05-08T01:59:21;9.85;;;6.30;;
46439;SDS011;32138;50.966;6.968;2023-05-08T02:00:24;6.65;;;6.05;;
46439;SDS011;32138;50.966;6.968;2023-05-08T02:01:27;7.55;;;6.88;;
46439;SDS011;32138;50.966;6.968;2023-05-08T02:02:31;7.63;;;5.85;;
46439;SDS011;32138;50.966;6.968;2023-05-08T02:03:33;7.13;;;6.15;;
46439;SDS011;32138;50.966;6.968;2023-05-08T02:04:36;6.85;;;6.13;;
46439;SDS011;32138;50.966;6.968;2023-05-08T02:05:39;6.97;;;5.97;;
46439;SDS011;32138;50.966;6.968;2023-05-08T02:06:41;6.88;;;5.88;;
46439;SDS011;32138;50.966;6.968;2023-05-08T02:07:43;7.53;;;6.30;;
46439;SDS011;32138;50.966;6.968;2023-05-08T02:08:47;7.70;;;6.90;;
46439;SDS011;32138;50.966;6.968;2023-05-08T02:09:48;6.68;;;5.97;;
46439;SDS011;32138;50.966;6.968;2023-05-08T02:10:50;7.63;;;6.82;;
46439;SDS011;32138;50.966;6.968;2023-05-08T02:11:52;8.18;;;7.32;;
46439;SDS011;32138;50.966;6.968;2023-05-08T02:12:55;10.32;;;6.85;;
46439;SDS011;32138;50.966;6.968;2023-05-08T02:13:59;7.53;;;6.57;;
46439;SDS011;32138;50.966;6.968;2023-05-08T02:15:01;8.75;;;6.30;;
46439;SDS011;32138;50.966;6.968;2023-05-08T02:16:05;7.10;;;6.35;;
46439;SDS011;32138;50.966;6.968;2023-05-08T02:17:08;7.60;;;6.75;;
46439;SDS011;32138;50.966;6.968;2023-05-08T02:18:11;10.55;;;7.35;;
46439;SDS011;32138;50.966;6.968;2023-05-08T02:19:14;6.93;;;6.15;;
46439;SDS011;32138;50.966;6.968;2023-05-08T02:20:16;7.30;;;6.60;;
46439;SDS011;32138;50.966;6.968;2023-05-08T02:21:19;7.80;;;6.57;;
46439;SDS011;32138;50.966;6.968;2023-05-08T02:22:21;8.35;;;7.28;;
46439;SDS011;32138;50.966;6.968;2023-05-08T02:23:24;11.95;;;6.68;;
46439;SDS011;32138;50.966;6.968;2023-05-08T02:24:25;7.15;;;6.55;;
46439;SDS011;32138;50.966;6.968;2023-05-08T02:25:26;7.53;;;6.82;;
46439;SDS011;32138;50.966;6.968;2023-05-08T02:26:29;7.80;;;7.00;;
46439;SDS011;32138;50.966;6.968;2023-05-08T02:27:31;6.68;;;6.07;;
46439;SDS011;32138;50.966;6.968;2023-05-08T02:28:32;8.27;;;7.32;;
46439;SDS011;32138;50.966;6.968;2023-05-08T02:29:35;8.45;;;7.05;;
46439;SDS011;32138;50.966;6.968;2023-05-08T02:30:37;9.60;;;7.38;;
46439;SDS011;32138;50.966;6.968;2023-05-08T02:31:39;8.77;;;7.10;;
46439;SDS011;32138;50.966;6.968;2023-05-08T02:32:42;8.60;;;7.13;;
46439;SDS011;32138;50.966;6.968;2023-05-08T02:33:45;7.28;;;6.57;;
46439;SDS011;32138;50.966;6.968;2023-05-08T02:34:48;8.30;;;7.32;;
46439;SDS011;32138;50.966;6.968;2023-05-08T02:35:49;8.10;;;6.65;;
46439;SDS011;32138;50.966;6.968;2023-05-08T02:36:51;8.68;;;7.20;;
46439;SDS011;32138;50.966;6.968;2023-05-08T02:37:54;9.20;;;8.30;;
46439;SDS011;32138;50.966;6.968;2023-05-08T02:38:56;7.88;;;7.15;;
46439;SDS011;32138;50.966;6.968;2023-05-08T02:39:59;8.68;;;7.50;;
46439;SDS011;32138;50.966;6.968;2023-05-08T02:41:01;7.53;;;6.93;;
46439;SDS011;32138;50.966;6.968;2023-05-08T02:42:05;8.75;;;7.82;;
46439;SDS011;32138;50.966;6.968;2023-05-08T02:43:06;9.45;;;6.88;;
46439;SDS011;32138;50.966;6.968;2023-05-08T02:44:07;8.00;;;6.57;;
46439;SDS011;32138;50.966;6.968;2023-05-08T02:45:08;7.80;;;6.50;;
46439;SDS011;32138;50.966;6.968;2023-05-08T02:46:18;7.22;;;6.63;;
46439;SDS011;32138;50.966;6.968;2023-05-08T02:47:26;9.98;;;7.45;;
46439;SDS011;32138;50.966;6.968;2023-05-08T02:48:38;8.57;;;7.68;;
46439;SDS011;32138;50.966;6.968;2023-05-08T02:49:54;7.78;;;6.97;;
46439;SDS011;32138;50.966;6.968;2023-05-08T02:51:15;7.40;;;6.70;;
46439;SDS011;32138;50.966;6.968;2023-05-08T02:53:35;8.27;;;7.47;;
46439;SDS011;32138;50.966;6.968;2023-05-08T02:54:46;7.93;;;7.05;;
46439;SDS011;32138;50.966;6.968;2023-05-08T02:55:57;9.15;;;7.93;;
46439;SDS011;32138;50.966;6.968;2023-05-08T02:57:14;7.65;;;6.95;;
46439;SDS011;32138;50.966;6.968;2023-05-08T02:59:36;9.77;;;7.28;;
46439;SDS011;32138;50.966;6.968;2023-05-08T03:02:11;8.38;;;7.50;;
46439;SDS011;32138;50.966;6.968;2023-05-08T03:03:22;10.13;;;8.00;;
46439;SDS011;32138;50.966;6.968;2023-05-08T03:04:30;9.60;;;8.70;;
46439;SDS011;32138;50.966;6.968;2023-05-08T03:05:36;8.80;;;8.00;;
46439;SDS011;32138;50.966;6.968;2023-05-08T03:06:42;8.60;;;7.60;;
46439;SDS011;32138;50.966;6.968;2023-05-08T03:07:49;9.20;;;7.43;;
46439;SDS011;32138;50.966;6.968;2023-05-08T03:08:53;9.00;;;7.97;;
46439;SDS011;32138;50.966;6.968;2023-05-08T03:10:02;12.80;;;8.75;;
46439;SDS011;32138;50.966;6.968;2023-05-08T03:11:10;8.48;;;7.68;;
46439;SDS011;32138;50.966;6.968;2023-05-08T03:12:15;7.78;;;7.07;;
46439;SDS011;32138;50.966;6.968;2023-05-08T03:13:21;7.80;;;7.00;;
46439;SDS011;32138;50.966;6.968;2023-05-08T03:14:22;8.57;;;7.75;;
46439;SDS011;32138;50.966;6.968;2023-05-08T03:15:37;8.50;;;7.60;;
46439;SDS011;32138;50.966;6.968;2023-05-08T03:16:44;11.77;;;8.90;;
46439;SDS011;32138;50.966;6.968;2023-05-08T03:17:50;10.05;;;9.10;;
46439;SDS011;32138;50.966;6.968;2023-05-08T03:19:00;8.35;;;7.55;;
46439;SDS011;32138;50.966;6.968;2023-05-08T03:20:06;10.05;;;8.00;;
46439;SDS011;32138;50.966;6.968;2023-05-08T03:21:11;9.55;;;8.25;;
46439;SDS011;32138;50.966;6.968;2023-05-08T03:22:18;8.25;;;7.30;;
46439;SDS011;32138;50.966;6.968;2023-05-08T03:23:19;8.20;;;7.28;;
46439;SDS011;32138;50.966;6.968;2023-05-08T03:24:22;9.85;;;8.13;;
46439;SDS011;32138;50.966;6.968;2023-05-08T03:25:27;9.07;;;8.18;;
46439;SDS011;32138;50.966;6.968;2023-05-08T03:26:29;8.50;;;7.63;;
46439;SDS011;32138;50.966;6.968;2023-05-08T03:27:31;9.90;;;7.38;;
46439;SDS011;32138;50.966;6.968;2023-05-08T03:28:34;9.13;;;7.68;;
46439;SDS011;32138;50.966;6.968;2023-05-08T03:29:36;8.55;;;7.75;;
46439;SDS011;32138;50.966;6.968;2023-05-08T03:30:39;8.38;;;7.35;;
46439;SDS011;32138;50.966;6.968;2023-05-08T03:31:41;8.38;;;7.47;;
46439;SDS011;32138;50.966;6.968;2023-05-08T03:32:44;11.10;;;8.35;;
46439;SDS011;32138;50.966;6.968;2023-05-08T03:33:54;11.25;;;10.15;;
46439;SDS011;32138;50.966;6.968;2023-05-08T03:34:57;10.23;;;9.02;;
46439;SDS011;32138;50.966;6.968;2023-05-08T03:35:58;11.48;;;8.27;;
46439;SDS011;32138;50.966;6.968;2023-05-08T03:36:59;9.48;;;8.50;;
46439;SDS011;32138;50.966;6.968;2023-05-08T03:38:00;10.73;;;9.65;;
46439;SDS011;32138;50.966;6.968;2023-05-08T03:39:01;11.95;;;10.45;;
46439;SDS011;32138;50.966;6.968;2023-05-08T03:40:03;10.57;;;9.50;;
46439;SDS011;32138;50.966;6.968;2023-05-08T03:41:05;9.95;;;8.32;;
46439;SDS011;32138;50.966;6.968;2023-05-08T03:42:06;11.13;;;9.95;;
46439;SDS011;32138;50.966;6.968;2023-05-08T03:43:07;9.73;;;8.43;;
46439;SDS011;32138;50.966;6.968;2023-05-08T03:44:09;11.23;;;9.35;;
46439;SDS011;32138;50.966;6.968;2023-05-08T03:45:10;10.50;;;9.10;;
46439;SDS011;32138;50.966;6.968;2023-05-08T03:46:13;10.52;;;9.43;;
46439;SDS011;32138;50.966;6.968;2023-05-08T03:47:17;12.00;;;10.80;;
46439;SDS011;32138;50.966;6.968;2023-05-08T03:48:19;11.30;;;10.23;;
46439;SDS011;32138;50.966;6.968;2023-05-08T03:49:22;11.75;;;10.57;;
46439;SDS011;32138;50.966;6.968;2023-05-08T03:50:25;13.18;;;10.25;;
46439;SDS011;32138;50.966;6.968;2023-05-08T03:51:26;11.38;;;10.30;;
46439;SDS011;32138;50.966;6.968;2023-05-08T03:52:28;9.80;;;8.90;;
46439;SDS011;32138;50.966;6.968;2023-05-08T03:53:30;12.85;;;10.38;;
46439;SDS011;32138;50.966;6.968;2023-05-08T03:54:32;12.63;;;11.32;;
46439;SDS011;32138;50.966;6.968;2023-05-08T03:55:32;11.50;;;10.40;;
46439;SDS011;32138;50.966;6.968;2023-05-08T03:56:33;10.60;;;9.70;;
46439;SDS011;32138;50.966;6.968;2023-05-08T03:57:35;12.13;;;11.02;;
46439;SDS011;32138;50.966;6.968;2023-05-08T04:00:15;12.18;;;10.85;;
46439;SDS011;32138;50.966;6.968;2023-05-08T04:01:27;11.32;;;10.13;;
46439;SDS011;32138;50.966;6.968;2023-05-08T04:05:35;12.05;;;10.77;;
46439;SDS011;32138;50.966;6.968;2023-05-08T04:09:35;33.67;;;30.35;;
46439;SDS011;32138;50.966;6.968;2023-05-08T04:11:24;21.30;;;19.10;;
46439;SDS011;32138;50.966;6.968;2023-05-08T04:12:30;14.55;;;13.15;;
46439;SDS011;32138;50.966;6.968;2023-05-08T04:13:42;15.55;;;12.38;;
46439;SDS011;32138;50.966;6.968;2023-05-08T04:14:51;12.90;;;11.60;;
46439;SDS011;32138;50.966;6.968;2023-05-08T04:16:29;13.30;;;11.82;;
46439;SDS011;32138;50.966;6.968;2023-05-08T04:17:48;14.20;;;12.18;;
46439;SDS011;32138;50.966;6.968;2023-05-08T04:19:01;13.32;;;12.02;;
46439;SDS011;32138;50.966;6.968;2023-05-08T04:20:08;14.10;;;11.60;;
46439;SDS011;32138;50.966;6.968;2023-05-08T04:21:19;12.77;;;11.48;;
46439;SDS011;32138;50.966;6.968;2023-05-08T04:22:22;13.77;;;12.43;;
46439;SDS011;32138;50.966;6.968;2023-05-08T04:23:26;12.45;;;10.95;;
46439;SDS011;32138;50.966;6.968;2023-05-08T04:24:28;17.02;;;13.15;;
46439;SDS011;32138;50.966;6.968;2023-05-08T04:25:38;16.40;;;12.88;;
46439;SDS011;32138;50.966;6.968;2023-05-08T04:26:40;16.60;;;12.40;;
46439;SDS011;32138;50.966;6.968;2023-05-08T04:27:43;17.92;;;13.38;;
46439;SDS011;32138;50.966;6.968;2023-05-08T04:28:45;14.52;;;12.93;;
46439;SDS011;32138;50.966;6.968;2023-05-08T04:29:46;13.13;;;10.93;;
46439;SDS011;32138;50.966;6.968;2023-05-08T04:30:47;16.52;;;11.95;;
46439;SDS011;32138;50.966;6.968;2023-05-08T04:31:50;14.90;;;11.45;;
46439;SDS011;32138;50.966;6.968;2023-05-08T04:32:50;13.02;;;11.27;;
46439;SDS011;32138;50.966;6.968;2023-05-08T04:33:51;16.83;;;12.10;;
46439;SDS011;32138;50.966;6.968;2023-05-08T04:34:53;18.00;;;12.65;;
46439;SDS011;32138;50.966;6.968;2023-05-08T04:35:55;12.77;;;11.43;;
46439;SDS011;32138;50.966;6.968;2023-05-08T04:36:56;12.90;;;11.65;;
46439;SDS011;32138;50.966;6.968;2023-05-08T04:37:57;14.27;;;12.70;;
46439;SDS011;32138;50.966;6.968;2023-05-08T04:38:59;16.27;;;12.68;;
46439;SDS011;32138;50.966;6.968;2023-05-08T04:40:00;14.07;;;12.68;;
46439;SDS011;32138;50.966;6.968;2023-05-08T04:41:01;13.05;;;11.85;;
46439;SDS011;32138;50.966;6.968;2023-05-08T04:42:02;13.98;;;10.98;;
46439;SDS011;32138;50.966;6.968;2023-05-08T04:43:03;13.52;;;12.15;;
46439;SDS011;32138;50.966;6.968;2023-05-08T04:44:04;15.68;;;13.20;;
46439;SDS011;32138;50.966;6.968;2023-05-08T04:45:05;14.57;;;12.02;;
46439;SDS011;32138;50.966;6.968;2023-05-08T04:46:06;14.23;;;12.68;;
46439;SDS011;32138;50.966;6.968;2023-05-08T04:47:08;14.52;;;11.95;;
46439;SDS011;32138;50.966;6.968;2023-05-08T04:48:08;14.60;;;13.07;;
46439;SDS011;32138;50.966;6.968;2023-05-08T04:49:09;16.50;;;14.30;;
46439;SDS011;32138;50.966;6.968;2023-05-08T04:50:10;12.73;;;11.43;;
46439;SDS011;32138;50.966;6.968;2023-05-08T04:51:11;13.32;;;11.93;;
46439;SDS011;32138;50.966;6.968;2023-05-08T04:52:12;13.02;;;11.65;;
46439;SDS011;32138;50.966;6.968;2023-05-08T04:53:13;12.88;;;11.57;;
46439;SDS011;32138;50.966;6.968;2023-05-08T04:54:13;14.50;;;12.35;;
46439;SDS011;32138;50.966;6.968;2023-05-08T04:55:14;14.05;;;12.65;;
46439;SDS011;32138;50.966;6.968;2023-05-08T04:56:15;14.40;;;12.98;;
46439;SDS011;32138;50.966;6.968;2023-05-08T04:57:16;13.55;;;12.13;;
46439;SDS011;32138;50.966;6.968;2023-05-08T04:58:17;14.15;;;12.65;;
46439;SDS011;32138;50.966;6.968;2023-05-08T04:59:18;14.82;;;13.25;;
46439;SDS011;32138;50.966;6.968;2023-05-08T05:00:18;15.23;;;13.68;;
46439;SDS011;32138;50.966;6.968;2023-05-08T05:01:19;13.93;;;12.45;;
46439;SDS011;32138;50.966;6.968;2023-05-08T05:02:20;13.52;;;12.23;;
46439;SDS011;32138;50.966;6.968;2023-05-08T05:03:21;14.63;;;13.23;;
46439;SDS011;32138;50.966;6.968;2023-05-08T05:04:21;14.02;;;12.73;;
46439;SDS011;32138;50.966;6.968;2023-05-08T05:05:22;16.10;;;13.52;;
46439;SDS011;32138;50.966;6.968;2023-05-08T05:06:23;14.07;;;12.68;;
46439;SDS011;32138;50.966;6.968;2023-05-08T05:07:24;15.55;;;12.93;;
46439;SDS011;32138;50.966;6.968;2023-05-08T05:08:24;13.40;;;12.07;;
46439;SDS011;32138;50.966;6.968;2023-05-08T05:09:26;14.70;;;13.02;;
46439;SDS011;32138;50.966;6.968;2023-05-08T05:10:26;12.88;;;11.65;;
46439;SDS011;32138;50.966;6.968;2023-05-08T05:11:27;14.38;;;12.95;;
46439;SDS011;32138;50.966;6.968;2023-05-08T05:12:28;13.50;;;12.20;;
46439;SDS011;32138;50.966;6.968;2023-05-08T05:13:29;14.85;;;13.35;;
46439;SDS011;32138;50.966;6.968;2023-05-08T05:14:30;13.18;;;11.98;;
46439;SDS011;32138;50.966;6.968;2023-05-08T05:15:31;14.48;;;13.00;;
46439;SDS011;32138;50.966;6.968;2023-05-08T05:16:31;13.85;;;12.30;;
46439;SDS011;32138;50.966;6.968;2023-05-08T05:17:32;15.20;;;12.52;;
46439;SDS011;32138;50.966;6.968;2023-05-08T05:18:33;16.42;;;14.65;;
46439;SDS011;32138;50.966;6.968;2023-05-08T05:19:34;14.32;;;12.85;;
46439;SDS011;32138;50.966;6.968;2023-05-08T05:20:35;15.60;;;14.02;;
46439;SDS011;32138;50.966;6.968;2023-05-08T05:21:36;15.32;;;13.73;;
46439;SDS011;32138;50.966;6.968;2023-05-08T05:22:37;14.95;;;13.48;;
46439;SDS011;32138;50.966;6.968;2023-05-08T05:23:38;14.07;;;12.70;;
46439;SDS011;32138;50.966;6.968;2023-05-08T05:24:38;15.23;;;12.95;;
46439;SDS011;32138;50.966;6.968;2023-05-08T05:25:40;15.60;;;13.00;;
46439;SDS011;32138;50.966;6.968;2023-05-08T05:26:41;15.55;;;13.95;;
46439;SDS011;32138;50.966;6.968;2023-05-08T05:27:42;16.50;;;14.57;;
46439;SDS011;32138;50.966;6.968;2023-05-08T05:28:42;15.07;;;13.63;;
46439;SDS011;32138;50.966;6.968;2023-05-08T05:29:43;14.70;;;13.10;;
46439;SDS011;32138;50.966;6.968;2023-05-08T05:30:47;15.98;;;14.43;;
46439;SDS011;32138;50.966;6.968;2023-05-08T05:31:48;15.43;;;13.80;;
46439;SDS011;32138;50.966;6.968;2023-05-08T05:32:48;15.20;;;13.70;;
46439;SDS011;32138;50.966;6.968;2023-05-08T05:33:49;15.13;;;13.60;;
46439;SDS011;32138;50.966;6.968;2023-05-08T05:34:50;25.48;;;15.18;;
46439;SDS011;32138;50.966;6.968;2023-05-08T05:35:52;14.60;;;13.25;;
46439;SDS011;32138;50.966;6.968;2023-05-08T05:36:53;16.23;;;14.55;;
46439;SDS011;32138;50.966;6.968;2023-05-08T05:37:54;14.35;;;12.93;;
46439;SDS011;32138;50.966;6.968;2023-05-08T05:38:55;15.32;;;13.80;;
46439;SDS011;32138;50.966;6.968;2023-05-08T05:39:55;15.57;;;14.13;;
46439;SDS011;32138;50.966;6.968;2023-05-08T05:40:56;14.65;;;13.15;;
46439;SDS011;32138;50.966;6.968;2023-05-08T05:41:57;15.73;;;14.13;;
46439;SDS011;32138;50.966;6.968;2023-05-08T05:42:58;15.27;;;13.77;;
46439;SDS011;32138;50.966;6.968;2023-05-08T05:43:58;15.05;;;13.35;;
46439;SDS011;32138;50.966;6.968;2023-05-08T05:44:59;15.02;;;13.63;;
46439;SDS011;32138;50.966;6.968;2023-05-08T05:46:03;14.60;;;13.30;;
46439;SDS011;32138;50.966;6.968;2023-05-08T05:47:05;14.27;;;12.82;;
46439;SDS011;32138;50.966;6.968;2023-05-08T05:48:08;13.75;;;12.45;;
46439;SDS011;32138;50.966;6.968;2023-05-08T05:49:09;15.43;;;13.57;;
46439;SDS011;32138;50.966;6.968;2023-05-08T05:50:11;13.40;;;12.00;;
46439;SDS011;32138;50.966;6.968;2023-05-08T05:51:11;37.72;;;34.13;;
46439;SDS011;32138;50.966;6.968;2023-05-08T05:52:13;40.38;;;36.50;;
46439;SDS011;32138;50.966;6.968;2023-05-08T05:53:13;26.45;;;24.05;;
46439;SDS011;32138;50.966;6.968;2023-05-08T05:54:14;31.77;;;28.85;;
46439;SDS011;32138;50.966;6.968;2023-05-08T05:55:15;35.70;;;32.30;;
46439;SDS011;32138;50.966;6.968;2023-05-08T05:56:16;18.73;;;16.90;;
46439;SDS011;32138;50.966;6.968;2023-05-08T05:57:17;16.65;;;15.13;;
46439;SDS011;32138;50.966;6.968;2023-05-08T05:58:17;14.52;;;13.02;;
46439;SDS011;32138;50.966;6.968;2023-05-08T05:59:18;15.95;;;13.82;;
46439;SDS011;32138;50.966;6.968;2023-05-08T06:00:19;15.40;;;13.90;;
46439;SDS011;32138;50.966;6.968;2023-05-08T06:01:21;14.70;;;13.15;;
46439;SDS011;32138;50.966;6.968;2023-05-08T06:02:23;15.30;;;13.70;;
46439;SDS011;32138;50.966;6.968;2023-05-08T06:03:24;15.48;;;13.57;;
46439;SDS011;32138;50.966;6.968;2023-05-08T06:04:25;15.45;;;13.95;;
46439;SDS011;32138;50.966;6.968;2023-05-08T06:05:26;16.45;;;14.85;;
46439;SDS011;32138;50.966;6.968;2023-05-08T06:06:27;16.83;;;13.00;;
46439;SDS011;32138;50.966;6.968;2023-05-08T06:07:29;15.30;;;13.55;;
46439;SDS011;32138;50.966;6.968;2023-05-08T06:08:29;15.95;;;14.52;;
46439;SDS011;32138;50.966;6.968;2023-05-08T06:09:30;15.68;;;14.07;;
46439;SDS011;32138;50.966;6.968;2023-05-08T06:10:31;14.73;;;13.10;;
46439;SDS011;32138;50.966;6.968;2023-05-08T06:11:32;15.30;;;13.35;;
46439;SDS011;32138;50.966;6.968;2023-05-08T06:12:32;43.78;;;39.67;;
46439;SDS011;32138;50.966;6.968;2023-05-08T06:13:33;102.28;;;92.65;;
46439;SDS011;32138;50.966;6.968;2023-05-08T06:14:34;53.70;;;48.63;;
46439;SDS011;32138;50.966;6.968;2023-05-08T06:15:35;27.90;;;24.95;;
46439;SDS011;32138;50.966;6.968;2023-05-08T06:16:36;16.67;;;15.18;;
46439;SDS011;32138;50.966;6.968;2023-05-08T06:17:36;15.63;;;14.15;;
46439;SDS011;32138;50.966;6.968;2023-05-08T06:18:37;16.67;;;15.05;;
46439;SDS011;32138;50.966;6.968;2023-05-08T06:19:38;20.60;;;15.63;;
46439;SDS011;32138;50.966;6.968;2023-05-08T06:20:39;15.93;;;14.38;;
46439;SDS011;32138;50.966;6.968;2023-05-08T06:21:39;17.65;;;15.27;;
46439;SDS011;32138;50.966;6.968;2023-05-08T06:22:40;15.90;;;14.32;;
46439;SDS011;32138;50.966;6.968;2023-05-08T06:23:41;15.27;;;13.68;;
46439;SDS011;32138;50.966;6.968;2023-05-08T06:24:42;14.13;;;12.73;;
46439;SDS011;32138;50.966;6.968;2023-05-08T06:25:43;49.42;;;44.90;;
46439;SDS011;32138;50.966;6.968;2023-05-08T06:26:44;34.15;;;30.88;;
46439;SDS011;32138;50.966;6.968;2023-05-08T06:27:45;18.80;;;17.10;;
46439;SDS011;32138;50.966;6.968;2023-05-08T06:28:46;16.42;;;14.93;;
46439;SDS011;32138;50.966;6.968;2023-05-08T06:29:47;17.05;;;15.43;;
46439;SDS011;32138;50.966;6.968;2023-05-08T06:30:52;14.50;;;13.18;;
46439;SDS011;32138;50.966;6.968;2023-05-08T06:31:53;15.02;;;13.50;;
46439;SDS011;32138;50.966;6.968;2023-05-08T06:32:54;16.48;;;14.98;;
46439;SDS011;32138;50.966;6.968;2023-05-08T06:33:55;16.00;;;13.90;;
46439;SDS011;32138;50.966;6.968;2023-05-08T06:34:56;16.60;;;13.82;;
46439;SDS011;32138;50.966;6.968;2023-05-08T06:35:57;15.30;;;13.60;;
46439;SDS011;32138;50.966;6.968;2023-05-08T06:36:58;15.75;;;13.88;;
46439;SDS011;32138;50.966;6.968;2023-05-08T06:37:58;12.75;;;11.43;;
46439;SDS011;32138;50.966;6.968;2023-05-08T06:39:00;15.20;;;13.75;;
46439;SDS011;32138;50.966;6.968;2023-05-08T06:40:04;15.35;;;13.80;;
46439;SDS011;32138;50.966;6.968;2023-05-08T06:41:05;13.85;;;12.63;;
46439;SDS011;32138;50.966;6.968;2023-05-08T06:42:06;13.88;;;12.43;;
46439;SDS011;32138;50.966;6.968;2023-05-08T06:43:07;15.18;;;13.45;;
46439;SDS011;32138;50.966;6.968;2023-05-08T06:44:08;14.00;;;12.75;;
46439;SDS011;32138;50.966;6.968;2023-05-08T06:45:09;14.45;;;13.10;;
46439;SDS011;32138;50.966;6.968;2023-05-08T06:46:10;14.43;;;13.13;;